createdAt,value
2019-04-21T00:00:54.196Z,6.20
2019-04-21T00:03:25.842Z,5.60
2019-04-21T00:06:09.477Z,5.40
2019-04-21T00:08:56.520Z,7.03
2019-04-21T00:11:09.431Z,6.40
2019-04-21T00:13:32.893Z,6.03
2019-04-21T00:15:57.365Z,6.33
2019-04-21T00:18:54.843Z,6.00
2019-04-21T00:21:26.505Z,5.57
2019-04-21T00:24:17.720Z,9.83
2019-04-21T00:26:53.159Z,6.00
2019-04-21T00:29:26.886Z,6.40
2019-04-21T00:31:45.835Z,8.90
2019-04-21T00:34:02.745Z,7.03
2019-04-21T00:36:42.747Z,8.50
2019-04-21T00:39:28.968Z,6.03
2019-04-21T00:41:56.333Z,9.47
2019-04-21T00:44:12.905Z,6.87
2019-04-21T00:46:43.610Z,8.00
2019-04-21T00:49:18.238Z,7.17
2019-04-21T00:52:11.420Z,6.80
2019-04-21T00:54:44.329Z,7.57
2019-04-21T00:57:11.121Z,6.10
2019-04-21T00:59:34.902Z,7.80
2019-04-21T01:02:00.276Z,9.37
2019-04-21T01:04:39.641Z,7.50
2019-04-21T01:07:03.033Z,7.23
2019-04-21T01:09:27.837Z,8.97
2019-04-21T01:12:01.362Z,8.50
2019-04-21T01:14:35.836Z,10.90
2019-04-21T01:17:11.122Z,6.90
2019-04-21T01:19:25.196Z,8.73
2019-04-21T01:21:37.821Z,8.50
2019-04-21T01:24:15.211Z,9.80
2019-04-21T01:26:48.448Z,11.63
2019-04-21T01:29:22.410Z,8.27
2019-04-21T01:31:48.470Z,8.67
2019-04-21T01:34:27.504Z,8.23
2019-04-21T01:36:52.448Z,7.77
2019-04-21T01:39:30.825Z,9.47
2019-04-21T01:41:57.271Z,8.20
2019-04-21T01:44:34.453Z,10.43
2019-04-21T01:46:48.688Z,12.90
2019-04-21T01:49:17.006Z,9.27
2019-04-21T01:52:15.156Z,10.37
2019-04-21T01:54:53.428Z,12.60
2019-04-21T01:57:23.136Z,8.50
2019-04-21T01:59:54.287Z,11.23
2019-04-21T02:02:29.366Z,9.53
2019-04-21T02:05:03.193Z,17.80
2019-04-21T02:07:27.349Z,9.50
2019-04-21T02:10:05.120Z,11.23
2019-04-21T02:12:26.484Z,13.47
2019-04-21T02:15:17.077Z,11.93
2019-04-21T02:17:29.817Z,10.90
2019-04-21T02:19:51.850Z,11.30
2019-04-21T02:22:35.301Z,10.70
2019-04-21T02:25:06.356Z,11.43
2019-04-21T02:27:34.321Z,10.30
2019-04-21T02:30:05.671Z,9.27
2019-04-21T02:32:45.792Z,11.47
2019-04-21T02:35:14.245Z,10.10
2019-04-21T02:37:49.240Z,11.93
2019-04-21T02:42:45.893Z,13.07
2019-04-21T02:50:22.394Z,11.30
2019-04-21T02:52:55.445Z,12.20
2019-04-21T02:55:17.803Z,11.63
2019-04-21T02:58:00.086Z,11.77
2019-04-21T03:00:32.245Z,11.27
2019-04-21T03:08:44.369Z,12.73
2019-04-21T03:16:11.818Z,12.00
2019-04-21T03:29:03.383Z,10.03
2019-04-21T03:31:35.383Z,12.20
2019-04-21T03:38:46.898Z,9.57
2019-04-21T03:41:18.829Z,9.00
2019-04-21T03:43:44.642Z,9.83
2019-04-21T03:46:20.429Z,9.70
2019-04-21T03:49:02.278Z,9.53
2019-04-21T03:51:25.844Z,11.63
2019-04-21T03:53:40.376Z,9.30
2019-04-21T03:56:25.427Z,8.57
2019-04-21T04:01:16.606Z,12.23
2019-04-21T04:09:26.099Z,10.03
2019-04-21T04:11:58.058Z,13.40
2019-04-21T04:14:26.761Z,10.07
2019-04-21T04:19:33.115Z,8.63
2019-04-21T04:21:49.377Z,11.73
2019-04-21T04:24:36.126Z,9.00
2019-04-21T04:29:22.462Z,9.17
2019-04-21T04:31:47.508Z,9.57
2019-04-21T04:34:16.765Z,9.50
2019-04-21T04:39:42.891Z,9.00
2019-04-21T04:42:31.533Z,8.87
2019-04-21T04:49:47.918Z,9.17
2019-04-21T04:57:18.249Z,10.70
2019-04-21T04:59:43.428Z,10.17
2019-04-21T05:02:26.487Z,8.93
2019-04-21T05:07:16.957Z,8.93
2019-04-21T05:09:42.819Z,9.07
2019-04-21T05:14:39.045Z,11.03
2019-04-21T05:17:15.695Z,11.70
2019-04-21T05:19:42.793Z,10.50
2019-04-21T05:22:14.249Z,9.73
2019-04-21T05:24:23.050Z,9.83
2019-04-21T05:26:54.876Z,10.67
2019-04-21T05:29:56.880Z,9.37
2019-04-21T05:32:29.813Z,11.80
2019-04-21T05:34:55.960Z,10.50
2019-04-21T05:37:35.006Z,12.77
2019-04-21T05:40:12.272Z,11.43
2019-04-21T05:42:40.048Z,12.13
2019-04-21T05:45:16.012Z,11.20
2019-04-21T05:48:12.219Z,12.00
2019-04-21T05:50:35.047Z,11.07
2019-04-21T05:53:00.859Z,11.23
2019-04-21T05:55:38.547Z,13.90
2019-04-21T05:58:04.211Z,11.87
2019-04-21T06:00:55.933Z,12.40
2019-04-21T06:03:11.519Z,14.23
2019-04-21T06:08:10.194Z,11.33
2019-04-21T06:10:36.193Z,10.53
2019-04-21T06:13:06.078Z,12.53
2019-04-21T06:15:37.428Z,10.83
2019-04-21T06:18:05.342Z,13.50
2019-04-21T06:20:33.479Z,12.70
2019-04-21T06:23:03.422Z,10.63
2019-04-21T06:25:50.379Z,11.77
2019-04-21T06:28:10.363Z,11.13
2019-04-21T06:30:37.419Z,10.33
2019-04-21T06:33:19.911Z,11.53
2019-04-21T06:36:28.055Z,10.87
2019-04-21T06:44:01.472Z,11.27
2019-04-21T06:46:30.891Z,10.13
2019-04-21T06:48:59.629Z,13.58
2019-04-21T06:51:27.593Z,12.60
2019-04-21T06:54:03.597Z,9.80
2019-04-21T06:56:32.141Z,10.33
2019-04-21T06:58:51.915Z,11.10
2019-04-21T07:01:24.160Z,10.87
2019-04-21T07:04:01.667Z,10.73
2019-04-21T07:06:23.722Z,11.57
2019-04-21T07:09:08.092Z,9.53
2019-04-21T07:11:19.866Z,9.07
2019-04-21T07:14:01.716Z,11.80
2019-04-21T07:16:25.733Z,8.83
2019-04-21T07:19:01.083Z,9.67
2019-04-21T07:21:23.540Z,9.03
2019-04-21T07:23:57.222Z,9.47
2019-04-21T07:26:19.429Z,9.17
2019-04-21T07:28:57.129Z,9.07
2019-04-21T07:31:17.602Z,8.23
2019-04-21T07:36:21.656Z,9.27
2019-04-21T07:38:48.468Z,9.00
2019-04-21T07:41:09.151Z,9.53
2019-04-21T07:43:44.358Z,10.13
2019-04-21T07:46:10.148Z,8.27
2019-04-21T07:48:49.922Z,10.00
2019-04-21T07:52:08.421Z,9.17
2019-04-21T07:54:54.078Z,8.17
2019-04-21T07:56:41.880Z,7.83
2019-04-21T07:59:43.077Z,9.10
2019-04-21T08:01:56.441Z,8.07
2019-04-21T08:04:42.373Z,7.97
2019-04-21T08:06:52.049Z,9.63
2019-04-21T08:09:29.804Z,10.48
2019-04-21T08:11:53.248Z,9.80
2019-04-21T08:14:31.623Z,8.38
2019-04-21T08:16:57.738Z,8.83
2019-04-21T08:19:26.297Z,9.90
2019-04-21T08:22:03.823Z,8.07
2019-04-21T08:24:19.796Z,10.17
2019-04-21T08:26:58.600Z,10.70
2019-04-21T08:31:56.259Z,9.97
2019-04-21T08:34:30.814Z,8.97
2019-04-21T08:36:51.602Z,13.37
2019-04-21T08:39:31.294Z,7.80
2019-04-21T08:42:00.275Z,9.20
2019-04-21T08:44:26.257Z,8.43
2019-04-21T08:46:58.840Z,8.00
2019-04-21T08:49:22.274Z,7.13
2019-04-21T08:52:08.233Z,7.37
2019-04-21T08:57:15.272Z,8.13
2019-04-21T09:00:15.828Z,8.20
2019-04-21T09:03:02.530Z,8.53
2019-04-21T09:05:31.203Z,8.43
2019-04-21T09:07:57.454Z,9.27
2019-04-21T09:10:31.750Z,9.65
2019-04-21T09:13:00.214Z,10.55
2019-04-21T09:15:24.895Z,9.60
2019-04-21T09:17:48.954Z,9.63
2019-04-21T09:20:25.096Z,9.27
2019-04-21T09:22:54.045Z,9.33
2019-04-21T09:25:30.820Z,10.13
2019-04-21T09:27:55.606Z,9.03
2019-04-21T09:30:06.983Z,9.70
2019-04-21T09:32:38.172Z,8.83
2019-04-21T09:35:10.273Z,10.40
2019-04-21T09:37:44.343Z,7.83
2019-04-21T09:40:05.041Z,8.10
2019-04-21T09:42:40.112Z,8.13
2019-04-21T09:45:05.878Z,8.27
2019-04-21T09:47:43.859Z,8.75
2019-04-21T09:50:04.748Z,8.60
2019-04-21T09:52:39.660Z,8.85
2019-04-21T09:55:07.289Z,9.43
2019-04-21T09:57:40.472Z,9.03
2019-04-21T10:00:06.780Z,8.83
2019-04-21T10:02:39.962Z,9.97
2019-04-21T10:04:59.599Z,8.90
2019-04-21T10:07:34.295Z,8.87
2019-04-21T10:09:58.151Z,9.40
2019-04-21T10:12:26.081Z,10.07
2019-04-21T10:14:55.196Z,9.10
2019-04-21T10:17:44.613Z,9.97
2019-04-21T10:20:13.828Z,8.63
2019-04-21T10:22:41.783Z,8.20
2019-04-21T10:25:10.458Z,9.23
2019-04-21T10:27:39.192Z,9.63
2019-04-21T10:30:07.898Z,10.87
2019-04-21T10:32:36.409Z,8.67
2019-04-21T10:35:05.490Z,9.67
2019-04-21T10:37:45.487Z,10.17
2019-04-21T10:40:03.535Z,10.13
2019-04-21T10:42:31.401Z,8.67
2019-04-21T10:44:59.217Z,9.13
2019-04-21T10:47:27.051Z,8.43
2019-04-21T10:49:54.965Z,9.90
2019-04-21T10:52:30.890Z,10.35
2019-04-21T10:55:20.685Z,9.60
2019-04-21T10:57:30.578Z,9.20
2019-04-21T10:59:59.883Z,9.13
2019-04-21T11:02:43.331Z,10.03
2019-04-21T11:05:12.457Z,9.10
2019-04-21T11:08:07.860Z,11.03
2019-04-21T11:10:22.287Z,9.50
2019-04-21T11:12:50.707Z,9.53
2019-04-21T11:15:19.085Z,9.73
2019-04-21T11:17:48.633Z,11.90
2019-04-21T11:20:17.252Z,10.73
2019-04-21T11:22:45.123Z,10.30
2019-04-21T11:25:13.011Z,9.83
2019-04-21T11:27:42.925Z,10.40
2019-04-21T11:30:11.726Z,9.53
2019-04-21T11:32:42.070Z,10.03
2019-04-21T11:35:09.457Z,12.75
2019-04-21T11:37:37.889Z,10.30
2019-04-21T11:40:10.745Z,9.40
2019-04-21T11:42:39.649Z,11.83
2019-04-21T11:45:08.378Z,11.13
2019-04-21T11:47:40.663Z,10.20
2019-04-21T11:50:08.604Z,11.10
2019-04-21T11:52:36.938Z,8.40
2019-04-21T11:55:07.287Z,9.17
2019-04-21T11:57:40.178Z,9.73
2019-04-21T12:00:06.012Z,9.53
2019-04-21T12:02:35.223Z,11.20
2019-04-21T12:05:03.601Z,8.77
2019-04-21T12:07:31.441Z,8.20
2019-04-21T12:09:59.674Z,9.38
2019-04-21T12:12:27.552Z,8.30
2019-04-21T12:14:55.356Z,7.60
2019-04-21T12:17:23.728Z,13.10
2019-04-21T12:19:52.654Z,13.27
2019-04-21T12:22:25.325Z,11.20
2019-04-21T12:24:51.218Z,11.67
2019-04-21T12:27:20.351Z,9.47
2019-04-21T12:29:49.352Z,7.97
2019-04-21T12:32:44.216Z,9.50
2019-04-21T12:35:13.399Z,8.63
2019-04-21T12:37:42.635Z,9.90
2019-04-21T12:40:10.680Z,11.30
2019-04-21T12:42:39.322Z,9.30
2019-04-21T12:45:08.094Z,8.60
2019-04-21T12:47:35.959Z,8.87
2019-04-21T12:50:10.783Z,9.00
2019-04-21T12:52:37.717Z,12.03
2019-04-21T12:55:06.334Z,9.37
2019-04-21T12:57:35.096Z,10.33
2019-04-21T13:00:03.031Z,9.93
2019-04-21T13:02:31.698Z,11.50
2019-04-21T13:24:01.346Z,12.20
2019-04-21T13:26:39.481Z,11.93
2019-04-21T13:29:02.579Z,12.00
2019-04-21T13:31:31.972Z,10.73
2019-04-21T13:34:02.180Z,10.93
2019-04-21T13:36:31.646Z,10.93
2019-04-21T13:39:48.789Z,10.77
2019-04-21T13:41:56.953Z,12.13
2019-04-21T13:44:17.861Z,10.27
2019-04-21T13:46:47.170Z,11.17
2019-04-21T13:49:17.247Z,13.13
2019-04-21T13:51:45.901Z,11.03
2019-04-21T13:54:14.041Z,10.83
2019-04-21T13:56:42.548Z,10.63
2019-04-21T13:59:14.125Z,11.93
2019-04-21T14:01:43.541Z,10.77
2019-04-21T14:04:11.551Z,12.50
2019-04-21T14:06:42.535Z,17.67
2019-04-21T14:09:17.652Z,11.37
2019-04-21T14:11:49.408Z,12.47
2019-04-21T14:14:18.604Z,12.50
2019-04-21T14:16:47.879Z,13.73
2019-04-21T14:19:17.247Z,12.50
2019-04-21T14:21:49.830Z,13.60
2019-04-21T14:24:17.344Z,12.47
2019-04-21T14:26:52.206Z,12.10
2019-04-21T14:29:21.639Z,12.00
2019-04-21T14:31:56.012Z,11.93
2019-04-21T14:34:23.978Z,12.50
2019-04-21T14:36:52.929Z,15.00
2019-04-21T14:39:20.906Z,11.80
2019-04-21T14:41:48.774Z,10.83
2019-04-21T14:44:24.914Z,11.67
2019-04-21T14:50:18.114Z,13.17
2019-04-21T14:53:07.758Z,11.17
2019-04-21T14:55:37.239Z,11.53
2019-04-21T14:58:05.297Z,13.03
2019-04-21T15:00:52.811Z,11.70
2019-04-21T15:03:21.650Z,11.13
2019-04-21T15:05:49.538Z,12.20
2019-04-21T15:08:17.350Z,9.90
2019-04-21T15:10:45.416Z,10.70
2019-04-21T15:13:14.029Z,11.83
2019-04-21T15:15:41.918Z,11.00
2019-04-21T15:18:10.862Z,9.97
2019-04-21T15:20:38.648Z,8.87
2019-04-21T15:23:08.277Z,9.10
2019-04-21T15:25:36.320Z,9.80
2019-04-21T15:28:04.719Z,10.83
2019-04-21T15:30:34.461Z,9.10
2019-04-21T15:33:02.417Z,9.17
2019-04-21T15:35:31.048Z,12.17
2019-04-21T15:37:59.976Z,10.43
2019-04-21T15:40:38.665Z,11.13
2019-04-21T15:43:00.255Z,9.60
2019-04-21T15:45:28.503Z,10.23
2019-04-21T15:47:56.403Z,8.77
2019-04-21T15:50:25.132Z,11.77
2019-04-21T15:52:59.328Z,9.50
2019-04-21T15:55:59.150Z,9.03
2019-04-21T15:58:46.122Z,8.80
2019-04-21T16:01:36.593Z,10.30
2019-04-21T16:04:06.139Z,9.77
2019-04-21T16:06:35.275Z,8.83
2019-04-21T16:09:06.438Z,8.13
2019-04-21T16:11:35.654Z,9.30
2019-04-21T16:14:03.786Z,9.17
2019-04-21T16:16:32.705Z,8.27
2019-04-21T16:19:01.243Z,8.10
2019-04-21T16:21:29.557Z,8.40
2019-04-21T16:23:58.339Z,8.73
2019-04-21T16:26:26.810Z,9.03
2019-04-21T16:28:55.327Z,8.47
2019-04-21T16:31:24.476Z,8.10
2019-04-21T16:33:52.499Z,9.80
2019-04-21T16:36:20.313Z,9.37
2019-04-21T16:38:49.291Z,12.43
2019-04-21T16:41:18.233Z,8.87
2019-04-21T16:43:47.127Z,9.23
2019-04-21T16:46:15.800Z,9.40
2019-04-21T16:48:44.189Z,9.70
2019-04-21T16:51:12.995Z,11.43
2019-04-21T16:53:48.063Z,11.47
2019-04-21T16:56:29.457Z,10.03
2019-04-21T16:59:02.971Z,9.67
2019-04-21T17:01:31.754Z,9.07
2019-04-21T17:04:00.314Z,10.37
2019-04-21T17:06:29.221Z,10.13
2019-04-21T17:09:18.743Z,9.10
2019-04-21T17:11:48.529Z,11.90
2019-04-21T17:14:32.901Z,9.30
2019-04-21T17:17:08.674Z,9.03
2019-04-21T17:19:25.111Z,9.40
2019-04-21T17:21:45.720Z,10.63
2019-04-21T17:24:14.607Z,9.90
2019-04-21T17:26:44.185Z,9.00
2019-04-21T17:29:12.344Z,9.43
2019-04-21T17:31:41.317Z,9.40
2019-04-21T17:34:14.533Z,10.67
2019-04-21T17:36:39.257Z,9.70
2019-04-21T17:39:07.173Z,11.80
2019-04-21T17:41:42.457Z,9.03
2019-04-21T17:44:04.561Z,10.37
2019-04-21T17:46:41.740Z,9.13
2019-04-21T17:49:03.066Z,10.53
2019-04-21T17:51:55.625Z,10.17
2019-04-21T17:54:33.850Z,9.30
2019-04-21T17:57:20.287Z,9.90
2019-04-21T18:02:08.032Z,10.13
2019-04-21T18:04:50.994Z,11.07
2019-04-21T18:07:27.354Z,10.57
2019-04-21T18:10:02.125Z,13.07
2019-04-21T18:12:22.644Z,10.47
2019-04-21T18:14:38.029Z,11.50
2019-04-21T18:17:06.558Z,10.77
2019-04-21T18:19:36.880Z,11.17
2019-04-21T18:22:23.958Z,10.70
2019-04-21T18:24:59.109Z,12.83
2019-04-21T18:27:22.023Z,10.60
2019-04-21T18:29:52.515Z,13.53
2019-04-21T18:32:26.449Z,12.70
2019-04-21T18:35:17.307Z,12.10
2019-04-21T18:38:23.769Z,13.83
2019-04-21T18:40:50.896Z,10.57
2019-04-21T18:46:34.233Z,10.33
2019-04-21T18:48:55.225Z,11.47
2019-04-21T18:51:45.134Z,12.70
2019-04-21T18:54:29.976Z,14.73
2019-04-21T18:56:51.413Z,12.93
2019-04-21T18:59:08.964Z,12.03
2019-04-21T19:01:38.434Z,11.63
2019-04-21T19:04:13.466Z,14.13
2019-04-21T19:06:54.617Z,11.73
2019-04-21T19:09:21.555Z,11.57
2019-04-21T19:11:52.424Z,11.13
2019-04-21T19:14:36.217Z,10.70
2019-04-21T19:17:27.147Z,11.20
2019-04-21T19:19:54.570Z,10.20
2019-04-21T19:22:04.866Z,11.08
2019-04-21T19:24:36.957Z,13.33
2019-04-21T19:29:37.606Z,10.67
2019-04-21T19:32:11.965Z,14.37
2019-04-21T19:34:23.720Z,12.20
2019-04-21T19:36:57.108Z,13.23
2019-04-21T19:39:37.875Z,14.77
2019-04-21T19:42:00.440Z,19.33
2019-04-21T19:44:33.823Z,14.63
2019-04-21T19:47:06.546Z,12.63
2019-04-21T19:49:43.558Z,12.80
2019-04-21T19:51:54.055Z,11.83
2019-04-21T19:54:24.314Z,14.33
2019-04-21T19:56:44.904Z,18.00
2019-04-21T19:59:22.083Z,22.20
2019-04-21T20:01:45.133Z,28.10
2019-04-21T20:04:12.742Z,25.77
2019-04-21T20:06:53.284Z,24.63
2019-04-21T20:09:32.451Z,21.87
2019-04-21T20:12:00.863Z,16.30
2019-04-21T20:16:57.817Z,12.03
2019-04-21T20:19:15.585Z,13.70
2019-04-21T20:21:43.171Z,16.53
2019-04-21T20:24:15.057Z,14.80
2019-04-21T20:26:44.058Z,18.03
2019-04-21T20:29:28.041Z,14.13
2019-04-21T20:31:57.450Z,10.33
2019-04-21T20:34:34.227Z,12.37
2019-04-21T20:37:03.137Z,11.33
2019-04-21T20:39:16.608Z,10.73
2019-04-21T20:41:48.035Z,10.60
2019-04-21T20:44:24.823Z,9.63
2019-04-21T20:46:54.446Z,10.23
2019-04-21T20:49:19.097Z,14.63
2019-04-21T20:52:02.306Z,9.27
2019-04-21T20:54:24.537Z,11.70
2019-04-21T20:56:57.850Z,13.20
2019-04-21T20:59:19.425Z,13.90
2019-04-21T21:01:58.013Z,13.30
2019-04-21T21:04:19.370Z,15.60
2019-04-21T21:06:54.361Z,14.63
2019-04-21T21:09:18.330Z,13.43
2019-04-21T21:12:09.918Z,12.80
2019-04-21T21:14:25.181Z,11.77
2019-04-21T21:16:57.508Z,11.83
2019-04-21T21:19:32.935Z,13.23
2019-04-21T21:21:54.005Z,13.00
2019-04-21T21:24:36.176Z,13.37
2019-04-21T21:26:57.852Z,12.73
2019-04-21T21:29:31.562Z,10.20
2019-04-21T21:32:05.208Z,13.33
2019-04-21T21:34:33.314Z,10.50
2019-04-21T21:37:08.664Z,10.30
2019-04-21T21:39:36.225Z,12.10
2019-04-21T21:41:46.362Z,12.03
2019-04-21T21:44:16.089Z,11.10
2019-04-21T21:46:49.933Z,10.60
2019-04-21T21:49:30.274Z,11.73
2019-04-21T21:51:55.989Z,11.23
2019-04-21T21:54:11.629Z,12.07
2019-04-21T21:56:40.638Z,11.83
2019-04-21T21:59:14.989Z,13.97
2019-04-21T22:01:44.098Z,12.33
2019-04-21T22:04:14.544Z,11.50
2019-04-21T22:06:48.155Z,10.57
2019-04-21T22:09:08.569Z,10.97
2019-04-21T22:11:36.305Z,9.37
2019-04-21T22:14:10.119Z,9.77
2019-04-21T22:16:47.872Z,11.60
2019-04-21T22:19:21.954Z,10.47
2019-04-21T22:21:53.637Z,14.90
2019-04-21T22:24:19.821Z,13.80
2019-04-21T22:26:36.847Z,16.77
2019-04-21T22:29:05.624Z,14.90
2019-04-21T22:31:37.097Z,17.10
2019-04-21T22:34:05.936Z,14.80
2019-04-21T22:36:44.411Z,14.03
2019-04-21T22:39:19.285Z,13.93
2019-04-21T22:41:38.094Z,13.07
2019-04-21T22:44:01.224Z,13.17
2019-04-21T22:46:30.642Z,13.83
2019-04-21T22:49:03.717Z,14.30
2019-04-21T22:51:36.853Z,14.87
2019-04-21T22:53:59.496Z,15.03
2019-04-21T22:56:32.062Z,14.93
2019-04-21T22:58:57.109Z,13.00
2019-04-21T23:01:33.453Z,13.83
2019-04-21T23:04:00.445Z,16.27
2019-04-21T23:06:27.548Z,16.27
2019-04-21T23:08:55.002Z,19.53
2019-04-21T23:11:23.508Z,15.37
2019-04-21T23:13:57.848Z,15.10
2019-04-21T23:16:28.038Z,18.00
2019-04-21T23:19:10.933Z,17.27
2019-04-21T23:21:36.270Z,15.67
2019-04-21T23:24:07.380Z,15.00
2019-04-21T23:26:37.505Z,15.10
2019-04-21T23:29:07.509Z,13.53
2019-04-21T23:31:35.569Z,15.30
2019-04-21T23:33:48.385Z,12.60
2019-04-21T23:36:22.287Z,14.23
2019-04-21T23:38:48.460Z,11.57
2019-04-21T23:41:15.382Z,14.30
2019-04-21T23:43:44.858Z,11.13
2019-04-21T23:46:22.044Z,10.53
2019-04-21T23:49:01.809Z,12.13
2019-04-21T23:51:25.891Z,12.73
2019-04-21T23:53:41.628Z,11.97
2019-04-21T23:56:13.419Z,11.00
2019-04-21T23:58:40.308Z,10.57
